Time;durP1;ratioP1;P1;durP2;ratioP2;P2;SDS_P1;SDS_P2;PMS_P1;PMS_P2;Temp;Humidity;BMP_temperature;BMP_pressure;BME280_temperature;BME280_humidity;BME280_pressure;Samples;Min_cycle;Max_cycle;Signal;HPM_P1;HPM_P2
2022/06/06 00:00:39;;;;;;;5.03;4.63;;;19.90;95.40;;;;;;5064735;28;20192;-80
2022/06/06 00:03:05;;;;;;;5.32;4.88;;;20.00;95.40;;;;;;5072911;28;20302;-79
2022/06/06 00:05:31;;;;;;;4.60;4.07;;;20.00;94.90;;;;;;5064301;28;20235;-79
2022/06/06 00:07:58;;;;;;;6.40;4.43;;;19.90;96.70;;;;;;5069708;28;20181;-79
2022/06/06 00:10:24;;;;;;;5.47;4.60;;;19.60;96.80;;;;;;5067593;28;20187;-79
2022/06/06 00:12:50;;;;;;;5.63;4.40;;;19.30;98.80;;;;;;5069512;28;20208;-79
2022/06/06 00:15:16;;;;;;;5.28;4.78;;;19.10;99.90;;;;;;5067242;28;20269;-80
2022/06/06 00:17:41;;;;;;;6.00;5.13;;;18.90;99.90;;;;;;5065338;28;20198;-79
2022/06/06 00:20:08;;;;;;;5.53;5.03;;;18.90;99.90;;;;;;5069261;28;20210;-79
2022/06/06 00:22:34;;;;;;;6.82;6.20;;;18.80;99.90;;;;;;5066124;28;20204;-79
2022/06/06 00:25:00;;;;;;;6.03;5.53;;;18.60;99.90;;;;;;5065985;28;20215;-79
2022/06/06 00:27:26;;;;;;;6.40;5.70;;;18.50;99.90;;;;;;5045712;28;20190;-79
2022/06/06 00:29:53;;;;;;;6.83;6.13;;;18.50;99.90;;;;;;5068845;28;20187;-80
2022/06/06 00:35:06;;;;;;;6.63;6.05;;;18.40;99.90;;;;;;5069076;28;20255;-79
2022/06/06 00:37:34;;;;;;;6.35;5.18;;;18.40;99.90;;;;;;5067366;28;20222;-79
2022/06/06 00:40:01;;;;;;;5.82;5.20;;;18.40;99.90;;;;;;5070616;28;20185;-79
2022/06/06 00:42:38;;;;;;;5.72;5.32;;;18.40;99.90;;;;;;5064287;28;20205;-79
2022/06/06 00:45:25;;;;;;;6.10;5.60;;;18.40;99.90;;;;;;5064712;28;20214;-79
2022/06/06 00:48:05;;;;;;;6.10;5.60;;;18.40;99.90;;;;;;5059975;28;20174;-79
2022/06/06 00:50:40;;;;;;;7.18;5.57;;;18.40;99.90;;;;;;5062047;28;20182;-79
2022/06/06 00:53:07;;;;;;;7.13;5.97;;;18.50;99.90;;;;;;5063752;28;20199;-80
2022/06/06 00:55:39;;;;;;;6.35;5.85;;;18.50;99.90;;;;;;5061972;28;20206;-79
2022/06/06 00:58:12;;;;;;;6.72;6.10;;;18.60;99.90;;;;;;5064187;28;20213;-80
2022/06/06 01:00:39;;;;;;;6.82;6.22;;;18.50;99.90;;;;;;5046817;28;20187;-81
2022/06/06 01:03:06;;;;;;;7.05;5.88;;;18.30;99.90;;;;;;5062135;28;20278;-80
2022/06/06 01:05:33;;;;;;;6.40;5.88;;;18.30;99.90;;;;;;5059384;28;20215;-79
2022/06/06 01:07:58;;;;;;;6.63;5.90;;;18.20;99.90;;;;;;5049717;28;20194;-80
2022/06/06 01:10:24;;;;;;;6.88;6.18;;;18.30;99.90;;;;;;5060657;28;20240;-80
2022/06/06 01:12:53;;;;;;;7.55;6.53;;;18.20;99.90;;;;;;5060207;28;20239;-79
2022/06/06 01:15:22;;;;;;;6.15;5.57;;;18.10;99.90;;;;;;5061982;28;20538;-79
2022/06/06 01:18:00;;;;;;;7.35;6.18;;;18.10;99.90;;;;;;5062182;28;20203;-79
2022/06/06 01:20:42;;;;;;;8.80;5.78;;;18.10;99.90;;;;;;5058629;28;20207;-79
2022/06/06 01:23:27;;;;;;;6.55;5.82;;;18.20;99.90;;;;;;5061989;28;20203;-79
2022/06/06 01:26:14;;;;;;;6.70;6.10;;;18.20;99.90;;;;;;5064473;28;20203;-80
2022/06/06 01:28:46;;;;;;;5.68;5.28;;;18.30;99.90;;;;;;5060267;28;20662;-79
2022/06/06 01:32:00;;;;;;;5.45;5.05;;;18.40;99.90;;;;;;5063456;28;20208;-79
2022/06/06 01:34:36;;;;;;;6.30;5.68;;;18.40;99.90;;;;;;5039694;28;20567;-80
2022/06/06 01:37:03;;;;;;;6.38;5.78;;;18.30;99.90;;;;;;5059253;28;20182;-79
2022/06/06 01:39:31;;;;;;;6.47;5.93;;;18.20;99.90;;;;;;5064668;28;20185;-79
2022/06/06 01:42:00;;;;;;;6.55;5.90;;;18.00;99.90;;;;;;5065914;28;20214;-80
2022/06/06 01:44:46;;;;;;;6.25;5.75;;;17.90;99.90;;;;;;5060953;28;20183;-80
2022/06/06 01:47:19;;;;;;;8.45;6.45;;;18.00;99.90;;;;;;5067041;28;20696;-79
2022/06/06 01:49:45;;;;;;;8.65;6.53;;;18.00;99.90;;;;;;5045802;28;20232;-80
2022/06/06 01:52:14;;;;;;;6.47;5.43;;;18.00;99.90;;;;;;5061633;28;20214;-81
2022/06/06 01:54:42;;;;;;;8.10;6.47;;;18.00;99.90;;;;;;5063009;28;20187;-79
2022/06/06 01:57:11;;;;;;;6.47;5.97;;;18.00;99.90;;;;;;5063382;28;20188;-79
2022/06/06 01:59:37;;;;;;;6.70;6.10;;;18.00;99.90;;;;;;5060466;28;20826;-79
2022/06/06 02:02:03;;;;;;;8.10;6.13;;;18.10;99.90;;;;;;5060390;28;20221;-79
2022/06/06 02:04:30;;;;;;;6.85;6.32;;;18.00;99.90;;;;;;5060256;28;20198;-79
2022/06/06 02:06:55;;;;;;;6.80;6.13;;;17.90;99.90;;;;;;5068021;28;20753;-79
2022/06/06 02:09:21;;;;;;;6.38;5.80;;;17.90;99.90;;;;;;5068170;28;20196;-79
2022/06/06 02:11:47;;;;;;;6.13;5.63;;;17.80;99.90;;;;;;5048751;28;20274;-79
2022/06/06 02:14:12;;;;;;;6.47;5.80;;;17.80;99.90;;;;;;5068165;28;20194;-79
2022/06/06 02:16:39;;;;;;;6.35;5.85;;;17.70;99.90;;;;;;5049410;28;20254;-80
2022/06/06 02:19:06;;;;;;;6.20;5.45;;;17.80;99.90;;;;;;5067808;28;20186;-79
2022/06/06 02:21:33;;;;;;;6.30;5.80;;;17.80;99.90;;;;;;5046683;28;20229;-79
2022/06/06 02:24:00;;;;;;;5.57;5.05;;;17.70;99.90;;;;;;5065681;28;20194;-80
2022/06/06 02:26:25;;;;;;;7.05;5.90;;;17.70;99.90;;;;;;5046101;28;20777;-79
2022/06/06 02:28:51;;;;;;;6.57;5.97;;;17.70;99.90;;;;;;5067535;28;20280;-80
2022/06/06 02:31:17;;;;;;;6.30;5.70;;;17.70;99.90;;;;;;5066828;28;20282;-80
2022/06/06 02:33:42;;;;;;;6.95;5.68;;;17.70;99.90;;;;;;5064472;28;20280;-79
2022/06/06 02:36:08;;;;;;;6.85;5.95;;;17.70;99.90;;;;;;5064381;28;20831;-78
2022/06/06 02:38:34;;;;;;;5.82;5.32;;;17.70;99.90;;;;;;5065972;28;20192;-78
2022/06/06 02:41:07;;;;;;;6.60;5.90;;;17.70;99.90;;;;;;5064417;28;20181;-78
2022/06/06 02:43:39;;;;;;;6.87;5.90;;;17.70;99.90;;;;;;5064119;28;20277;-79
2022/06/06 02:46:05;;;;;;;7.10;6.40;;;17.60;99.90;;;;;;5066132;28;20206;-78
2022/06/06 02:48:31;;;;;;;6.32;5.72;;;17.60;99.90;;;;;;5062604;28;20194;-79
2022/06/06 02:50:57;;;;;;;6.60;6.05;;;17.50;99.90;;;;;;5051304;28;20177;-78
2022/06/06 02:53:23;;;;;;;6.75;6.25;;;17.50;99.90;;;;;;5064859;28;20187;-78
2022/06/06 02:55:53;;;;;;;7.05;5.88;;;17.40;99.90;;;;;;5064030;28;20197;-78
2022/06/06 02:58:20;;;;;;;6.63;6.00;;;17.50;99.90;;;;;;5061746;28;20185;-78
2022/06/06 03:00:47;;;;;;;6.60;6.03;;;17.50;99.90;;;;;;5068952;28;20187;-78
2022/06/06 03:03:13;;;;;;;6.10;5.60;;;17.40;99.90;;;;;;5062960;28;20666;-78
2022/06/06 03:05:54;;;;;;;5.88;5.30;;;17.50;99.90;;;;;;5067671;28;20299;-78
2022/06/06 03:08:45;;;;;;;7.03;5.63;;;17.40;99.90;;;;;;5064035;28;20176;-79
2022/06/06 03:11:25;;;;;;;6.25;5.63;;;17.50;99.90;;;;;;5065324;28;20276;-77
2022/06/06 03:14:58;;;;;;;5.93;5.43;;;17.60;99.90;;;;;;5063928;28;20190;-78
2022/06/06 03:21:07;;;;;;;6.68;5.50;;;17.70;99.90;;;;;;5063552;28;20294;-78
2022/06/06 03:23:56;;;;;;;6.18;5.60;;;17.80;99.90;;;;;;5063793;28;20189;-79
2022/06/06 03:26:50;;;;;;;6.43;5.65;;;17.80;99.90;;;;;;5061372;28;20566;-79
2022/06/06 03:29:18;;;;;;;6.97;6.25;;;17.80;99.90;;;;;;5054860;28;20289;-78
2022/06/06 03:32:02;;;;;;;6.30;5.80;;;17.80;99.90;;;;;;5063274;28;20214;-79
2022/06/06 03:34:40;;;;;;;6.65;5.85;;;17.70;99.90;;;;;;5063245;28;20228;-78
2022/06/06 03:37:23;;;;;;;6.43;5.82;;;17.80;99.90;;;;;;5059500;28;20180;-79
2022/06/06 03:40:04;;;;;;;7.03;6.30;;;17.80;99.90;;;;;;5065983;28;20178;-80
2022/06/06 03:42:44;;;;;;;6.85;6.30;;;17.80;99.90;;;;;;5062924;28;20209;-78
2022/06/06 03:45:28;;;;;;;6.28;5.78;;;17.70;99.90;;;;;;5066428;28;20257;-79
2022/06/06 03:48:26;;;;;;;6.40;5.90;;;17.70;99.90;;;;;;5068125;28;20170;-79
2022/06/06 03:51:14;;;;;;;7.10;5.70;;;17.80;99.90;;;;;;5063321;28;20558;-79
2022/06/06 03:54:23;;;;;;;6.65;6.07;;;17.70;99.90;;;;;;5061670;28;20191;-79
2022/06/06 03:57:11;;;;;;;6.57;5.97;;;17.60;99.90;;;;;;5057671;28;20206;-79
2022/06/06 03:59:38;;;;;;;6.05;5.47;;;17.80;99.90;;;;;;5062740;28;20186;-81
2022/06/06 04:02:05;;;;;;;5.60;5.10;;;17.80;99.90;;;;;;5064078;28;20302;-79
2022/06/06 04:04:33;;;;;;;6.13;5.68;;;17.90;99.90;;;;;;5065384;28;20187;-80
2022/06/06 04:07:00;;;;;;;6.38;5.88;;;18.00;99.90;;;;;;5061652;28;20203;-79
2022/06/06 04:09:29;;;;;;;7.40;5.55;;;18.00;99.90;;;;;;5060314;28;20176;-79
2022/06/06 04:12:28;;;;;;;6.85;5.57;;;18.00;99.90;;;;;;5062284;28;20512;-79
2022/06/06 04:15:11;;;;;;;7.40;5.97;;;18.10;99.90;;;;;;5063117;28;20199;-78
2022/06/06 04:18:00;;;;;;;5.85;5.35;;;18.10;99.90;;;;;;5064224;28;20203;-79
2022/06/06 04:20:43;;;;;;;6.78;6.18;;;18.10;99.90;;;;;;5062533;28;20210;-80
2022/06/06 04:23:39;;;;;;;6.45;5.85;;;18.10;99.90;;;;;;5059358;28;20204;-79
2022/06/06 04:26:23;;;;;;;6.22;5.43;;;17.90;99.90;;;;;;5059551;28;20206;-79
2022/06/06 04:29:05;;;;;;;6.30;5.80;;;17.90;99.90;;;;;;5061048;28;20234;-79
2022/06/06 04:31:45;;;;;;;6.18;5.47;;;17.80;99.90;;;;;;5062661;28;20206;-79
2022/06/06 04:34:23;;;;;;;6.40;5.90;;;17.90;99.90;;;;;;5058678;28;20226;-79
2022/06/06 04:37:26;;;;;;;6.38;5.78;;;17.80;99.90;;;;;;5061245;28;20812;-79
2022/06/06 04:39:58;;;;;;;6.53;5.82;;;18.00;99.90;;;;;;5063265;28;20179;-79
2022/06/06 04:42:45;;;;;;;6.20;5.60;;;18.00;99.90;;;;;;5060404;28;20199;-79
2022/06/06 04:45:35;;;;;;;6.60;5.88;;;17.90;99.90;;;;;;5066842;28;20293;-79
2022/06/06 04:48:04;;;;;;;6.72;6.20;;;17.80;99.90;;;;;;5067203;28;20182;-79
2022/06/06 04:50:31;;;;;;;7.45;6.47;;;17.80;99.90;;;;;;5067880;28;20183;-79
2022/06/06 04:53:03;;;;;;;6.80;6.20;;;17.70;99.90;;;;;;5068738;28;20237;-80
2022/06/06 04:55:32;;;;;;;6.82;6.18;;;17.70;99.90;;;;;;5065244;28;20543;-80
2022/06/06 04:58:01;;;;;;;7.30;6.55;;;17.70;99.90;;;;;;5060460;28;20187;-77
2022/06/06 05:00:30;;;;;;;7.18;6.60;;;17.90;99.90;;;;;;5048902;28;20198;-79
2022/06/06 05:02:55;;;;;;;6.65;6.07;;;18.00;99.90;;;;;;5067453;28;20210;-78
2022/06/06 05:05:27;;;;;;;7.47;6.47;;;17.90;99.90;;;;;;5043992;28;20219;-81
2022/06/06 05:07:59;;;;;;;12.82;7.15;;;17.90;99.90;;;;;;5068590;28;20179;-80
2022/06/06 05:10:33;;;;;;;7.07;6.50;;;17.90;99.90;;;;;;5061572;28;20199;-78
2022/06/06 05:13:14;;;;;;;7.80;6.82;;;17.90;99.90;;;;;;5068615;28;20289;-79
2022/06/06 05:16:18;;;;;;;8.10;7.45;;;18.00;99.90;;;;;;5066543;28;20211;-80
2022/06/06 05:19:02;;;;;;;7.10;6.30;;;18.00;99.90;;;;;;5006349;28;20204;-78
2022/06/06 05:22:00;;;;;;;9.30;6.97;;;18.20;99.90;;;;;;5009406;28;20224;-79
2022/06/06 05:24:44;;;;;;;9.20;6.85;;;18.10;99.90;;;;;;5055695;28;20210;-79
2022/06/06 05:27:47;;;;;;;7.75;6.95;;;18.10;99.90;;;;;;5068322;28;20199;-79
2022/06/06 05:30:28;;;;;;;6.85;6.30;;;18.00;99.90;;;;;;5026700;28;20843;-78
2022/06/06 05:33:12;;;;;;;7.05;6.32;;;18.10;99.90;;;;;;5049028;28;20219;-78
2022/06/06 05:36:09;;;;;;;6.32;5.72;;;18.20;99.90;;;;;;5069390;28;20293;-79
2022/06/06 05:39:04;;;;;;;7.28;6.53;;;18.20;99.90;;;;;;5032820;28;20214;-78
2022/06/06 05:41:45;;;;;;;8.10;7.20;;;18.20;99.90;;;;;;5073306;28;20206;-79
2022/06/06 05:44:33;;;;;;;7.07;6.38;;;18.20;99.90;;;;;;5056819;28;20263;-79
2022/06/06 05:47:36;;;;;;;10.90;7.32;;;18.40;99.90;;;;;;5068580;28;20673;-79
2022/06/06 05:50:20;;;;;;;7.72;7.13;;;18.30;99.90;;;;;;5070040;28;20198;-79
2022/06/06 05:53:16;;;;;;;7.45;6.75;;;18.30;99.90;;;;;;5066670;28;20195;-79
2022/06/06 05:55:54;;;;;;;8.00;7.00;;;18.40;99.90;;;;;;5070624;28;20179;-78
2022/06/06 05:58:29;;;;;;;7.10;6.43;;;18.30;99.90;;;;;;5064306;28;20188;-79
2022/06/06 06:01:07;;;;;;;8.07;7.25;;;18.40;99.90;;;;;;5067158;28;20244;-79
2022/06/06 06:04:01;;;;;;;7.72;7.03;;;18.50;99.90;;;;;;5065401;28;20187;-79
2022/06/06 06:06:37;;;;;;;7.57;6.95;;;18.60;99.90;;;;;;5067975;28;20268;-79
2022/06/06 06:09:26;;;;;;;8.60;7.80;;;18.50;99.90;;;;;;5072904;28;20185;-78
2022/06/06 06:12:09;;;;;;;7.65;6.88;;;18.40;99.90;;;;;;5068480;28;20274;-78
2022/06/06 06:14:50;;;;;;;8.18;7.43;;;18.50;99.90;;;;;;5071351;28;20186;-78
2022/06/06 06:17:22;;;;;;;7.85;7.20;;;18.50;99.90;;;;;;5068317;28;20239;-78
2022/06/06 06:20:06;;;;;;;9.73;8.00;;;18.50;99.90;;;;;;5052237;28;20201;-78
2022/06/06 06:22:47;;;;;;;8.50;7.80;;;18.50;99.90;;;;;;5062169;28;20205;-78
2022/06/06 06:25:15;;;;;;;9.38;7.30;;;18.50;99.90;;;;;;5061657;28;20222;-78
2022/06/06 06:27:43;;;;;;;7.85;7.15;;;18.60;99.90;;;;;;5067647;28;20190;-78
2022/06/06 06:30:09;;;;;;;8.52;7.75;;;18.70;99.90;;;;;;5072420;28;20183;-78
2022/06/06 06:32:53;;;;;;;7.65;6.97;;;18.80;99.90;;;;;;5065063;28;20207;-78
2022/06/06 06:35:19;;;;;;;7.55;6.85;;;18.90;99.90;;;;;;5073231;28;20194;-77
2022/06/06 06:38:02;;;;;;;7.60;6.90;;;19.00;99.90;;;;;;5071212;28;20180;-79
2022/06/06 06:40:58;;;;;;;7.53;6.90;;;19.20;99.90;;;;;;5078172;28;20686;-78
2022/06/06 06:43:46;;;;;;;7.70;6.95;;;19.50;99.90;;;;;;5072866;28;20503;-78
2022/06/06 06:46:20;;;;;;;6.38;5.78;;;19.70;98.30;;;;;;5070871;28;20216;-78
2022/06/06 06:48:51;;;;;;;7.22;6.30;;;19.70;99.30;;;;;;5073855;28;20176;-78
2022/06/06 06:51:33;;;;;;;7.30;6.38;;;19.80;95.20;;;;;;5071999;28;20249;-80
2022/06/06 06:54:19;;;;;;;8.55;6.65;;;19.90;97.60;;;;;;5074150;28;20266;-78
2022/06/06 06:56:52;;;;;;;7.50;6.80;;;19.80;93.80;;;;;;5070516;28;20200;-79
2022/06/06 06:59:48;;;;;;;6.18;5.68;;;19.70;94.80;;;;;;5066691;28;20716;-79
2022/06/06 07:11:25;;;;;;;6.72;5.70;;;19.50;96.50;;;;;;5076465;28;20546;-80
2022/06/06 07:14:17;;;;;;;6.88;6.28;;;19.60;95.30;;;;;;5075380;28;20209;-81
2022/06/06 07:16:47;;;;;;;6.18;5.68;;;19.70;94.00;;;;;;5070234;28;20190;-80
2022/06/06 07:19:19;;;;;;;5.97;5.32;;;19.70;94.50;;;;;;5068303;28;20206;-78
2022/06/06 07:21:46;;;;;;;9.85;6.55;;;19.70;93.80;;;;;;5081428;28;20210;-78
2022/06/06 07:24:17;;;;;;;7.05;5.45;;;19.70;96.30;;;;;;5073338;28;20182;-78
2022/06/06 07:26:44;;;;;;;8.00;6.07;;;19.50;96.40;;;;;;5080006;28;20399;-78
2022/06/06 07:29:14;;;;;;;7.20;6.10;;;19.50;95.70;;;;;;5075900;28;20190;-80
2022/06/06 07:31:57;;;;;;;7.97;5.80;;;19.50;94.90;;;;;;5072246;28;20349;-79
2022/06/06 07:34:48;;;;;;;6.07;5.57;;;19.40;96.10;;;;;;5071796;28;20188;-79
2022/06/06 07:37:28;;;;;;;7.13;5.90;;;19.50;94.80;;;;;;5060742;28;20286;-80
2022/06/06 07:40:06;;;;;;;7.72;5.95;;;19.40;96.10;;;;;;5070551;28;20167;-78
2022/06/06 07:43:01;;;;;;;6.50;5.95;;;19.50;96.20;;;;;;5071814;28;20222;-81
2022/06/06 07:45:38;;;;;;;6.70;6.13;;;19.50;95.20;;;;;;5071953;28;20562;-79
2022/06/06 07:48:33;;;;;;;6.78;6.07;;;19.70;95.20;;;;;;5069120;28;20187;-79
2022/06/06 07:51:30;;;;;;;6.35;5.85;;;19.80;93.50;;;;;;5075687;28;20710;-78
2022/06/06 07:54:14;;;;;;;6.25;5.68;;;19.80;92.90;;;;;;5057302;28;20207;-77
2022/06/06 07:56:52;;;;;;;8.20;6.10;;;19.80;91.50;;;;;;5069294;28;20195;-78
2022/06/06 07:59:48;;;;;;;6.07;5.47;;;20.00;92.10;;;;;;5065856;28;20687;-78
2022/06/06 08:02:17;;;;;;;6.50;5.90;;;20.30;90.50;;;;;;5069836;28;20221;-78
2022/06/06 08:05:14;;;;;;;6.25;5.47;;;20.40;91.40;;;;;;5075302;28;20187;-79
2022/06/06 08:07:45;;;;;;;7.07;6.13;;;20.60;88.70;;;;;;5072701;28;20728;-78
2022/06/06 08:10:40;;;;;;;5.68;5.18;;;20.40;88.30;;;;;;5065862;28;20184;-81
2022/06/06 08:13:40;;;;;;;6.30;5.80;;;20.70;85.90;;;;;;5055952;28;20211;-78
2022/06/06 08:16:30;;;;;;;7.93;5.43;;;20.90;86.30;;;;;;5065149;28;20283;-80
2022/06/06 08:19:26;;;;;;;5.93;5.22;;;20.90;85.20;;;;;;5056382;28;20188;-79
2022/06/06 08:21:52;;;;;;;5.55;5.05;;;21.10;83.00;;;;;;5066286;28;20217;-79
2022/06/06 08:24:42;;;;;;;4.80;4.40;;;21.20;80.20;;;;;;5074793;28;20177;-78
2022/06/06 08:27:12;;;;;;;5.70;5.20;;;21.30;78.80;;;;;;5074619;28;20205;-79
2022/06/06 08:29:40;;;;;;;4.60;4.20;;;21.30;77.70;;;;;;5077217;28;20193;-79
2022/06/06 08:32:07;;;;;;;4.95;4.50;;;21.30;79.70;;;;;;5061494;28;20211;-78
2022/06/06 08:34:34;;;;;;;6.00;4.78;;;21.50;80.70;;;;;;5079255;28;20176;-79
2022/06/06 08:37:04;;;;;;;4.93;4.53;;;21.50;77.30;;;;;;5071041;28;20226;-79
2022/06/06 08:40:00;;;;;;;6.60;4.40;;;21.50;80.10;;;;;;5068568;28;20913;-79
2022/06/06 08:42:47;;;;;;;7.15;4.70;;;21.70;79.60;;;;;;5057677;28;20213;-80
2022/06/06 08:45:39;;;;;;;6.38;4.57;;;21.90;81.80;;;;;;5070848;28;20283;-79
2022/06/06 08:48:14;;;;;;;4.88;4.03;;;22.20;75.10;;;;;;5076173;28;20198;-80
2022/06/06 08:51:14;;;;;;;4.75;4.35;;;22.40;74.00;;;;;;5084049;28;20183;-81
2022/06/06 08:53:52;;;;;;;4.53;3.75;;;22.10;73.20;;;;;;5084380;28;20643;-83
2022/06/06 08:56:56;;;;;;;5.15;4.53;;;22.00;75.70;;;;;;5081496;28;20193;-81
2022/06/06 08:59:32;;;;;;;6.80;4.40;;;22.20;76.90;;;;;;5024284;28;20202;-82
2022/06/06 09:02:22;;;;;;;4.72;4.07;;;22.10;73.10;;;;;;5075903;28;20199;-81
2022/06/06 09:05:03;;;;;;;4.90;4.43;;;22.20;75.70;;;;;;5077720;28;20191;-79
2022/06/06 09:07:55;;;;;;;4.85;4.30;;;22.50;71.90;;;;;;5080181;28;20189;-80
2022/06/06 09:11:11;;;;;;;6.28;4.30;;;22.40;73.30;;;;;;5074433;28;20179;-81
2022/06/06 09:13:43;;;;;;;4.47;4.18;;;22.60;73.40;;;;;;5043499;28;20210;-80
2022/06/06 09:16:28;;;;;;;4.85;4.45;;;22.90;72.00;;;;;;5081390;28;20199;-80
2022/06/06 09:19:08;;;;;;;6.18;3.97;;;22.80;71.30;;;;;;5072302;28;20215;-80
2022/06/06 09:22:02;;;;;;;4.38;3.95;;;23.00;72.00;;;;;;5080649;28;20249;-80
2022/06/06 09:24:30;;;;;;;4.55;3.67;;;22.70;67.60;;;;;;5075036;28;20184;-80
2022/06/06 09:26:59;;;;;;;4.82;4.28;;;22.50;68.20;;;;;;5048445;28;20801;-80
2022/06/06 09:29:39;;;;;;;6.65;4.97;;;22.20;70.50;;;;;;5074852;28;20190;-79
2022/06/06 09:32:25;;;;;;;4.82;3.80;;;22.10;71.80;;;;;;5082385;28;20208;-81
2022/06/06 09:35:15;;;;;;;3.75;3.55;;;22.10;71.50;;;;;;5076867;28;20178;-80
2022/06/06 09:38:12;;;;;;;4.45;4.15;;;21.90;72.20;;;;;;5072687;28;20717;-81
2022/06/06 09:40:59;;;;;;;4.90;3.75;;;21.90;73.80;;;;;;5067591;28;20697;-80
2022/06/06 09:43:49;;;;;;;5.63;4.07;;;21.80;76.60;;;;;;5061495;28;20179;-80
2022/06/06 09:46:52;;;;;;;8.85;4.45;;;21.70;81.20;;;;;;5070374;28;20253;-80
2022/06/06 09:49:37;;;;;;;5.50;4.43;;;21.30;83.40;;;;;;5076694;28;20184;-81
2022/06/06 09:52:23;;;;;;;6.95;4.88;;;20.80;87.00;;;;;;5077280;28;20262;-80
2022/06/06 10:01:00;;;;;;;5.90;5.30;;;20.10;95.10;;;;;;5071062;28;20211;-82
2022/06/06 10:03:47;;;;;;;6.03;5.47;;;20.00;95.70;;;;;;5058876;28;20270;-82
2022/06/06 10:06:50;;;;;;;5.93;5.40;;;19.90;97.10;;;;;;5073309;28;20817;-82
2022/06/06 10:09:19;;;;;;;5.88;5.28;;;19.70;93.60;;;;;;5070624;28;20608;-81
2022/06/06 10:12:15;;;;;;;6.10;5.70;;;19.80;98.90;;;;;;5066976;28;20677;-82
2022/06/06 10:15:15;;;;;;;6.90;5.78;;;19.90;99.20;;;;;;5071837;28;20197;-82
2022/06/06 10:18:02;;;;;;;6.05;5.53;;;20.00;98.30;;;;;;5069776;28;20654;-82
2022/06/06 10:20:37;;;;;;;7.70;5.82;;;20.00;96.90;;;;;;5072457;28;20215;-82
2022/06/06 10:23:27;;;;;;;5.95;5.50;;;20.20;98.90;;;;;;5069610;28;20209;-83
2022/06/06 10:26:26;;;;;;;6.60;6.07;;;20.40;96.20;;;;;;5070043;28;20222;-82
2022/06/06 10:29:02;;;;;;;6.50;5.90;;;20.80;97.00;;;;;;5076881;28;20179;-82
2022/06/06 10:32:19;;;;;;;6.65;5.07;;;21.30;94.20;;;;;;5083186;28;20251;-82
2022/06/06 10:35:08;;;;;;;7.40;5.75;;;21.70;90.30;;;;;;5052860;28;20203;-82
2022/06/06 10:38:01;;;;;;;5.70;5.30;;;22.20;91.80;;;;;;5071008;28;20668;-82
2022/06/06 10:41:05;;;;;;;5.90;4.93;;;22.40;92.60;;;;;;5075049;28;20184;-81
2022/06/06 10:43:47;;;;;;;5.20;4.70;;;22.50;85.10;;;;;;5076916;28;20171;-83
2022/06/06 10:46:17;;;;;;;5.18;4.78;;;22.70;82.20;;;;;;5081393;28;20200;-83
2022/06/06 10:49:16;;;;;;;5.10;4.60;;;22.90;80.50;;;;;;5073712;28;20179;-83
2022/06/06 10:52:04;;;;;;;5.03;4.63;;;22.60;80.20;;;;;;5076381;28;20315;-83
2022/06/06 10:54:50;;;;;;;5.53;4.40;;;22.40;80.80;;;;;;5076318;28;20251;-81
2022/06/06 10:57:18;;;;;;;4.50;4.10;;;22.20;84.10;;;;;;5077452;28;20199;-82
2022/06/06 11:00:07;;;;;;;3.83;3.53;;;22.00;77.30;;;;;;5078504;28;20185;-82
2022/06/06 11:02:50;;;;;;;4.80;3.72;;;21.60;78.90;;;;;;5083999;28;20203;-82
2022/06/06 11:05:18;;;;;;;5.43;3.55;;;21.40;81.90;;;;;;5076154;28;20199;-82
2022/06/06 11:08:03;;;;;;;5.13;4.07;;;21.40;79.10;;;;;;5076457;28;20193;-81
2022/06/06 11:11:03;;;;;;;4.30;3.63;;;21.40;79.40;;;;;;5074702;28;20206;-80
2022/06/06 11:14:03;;;;;;;4.20;3.80;;;21.40;79.40;;;;;;5078718;28;20206;-80
2022/06/06 11:16:38;;;;;;;4.57;4.22;;;21.40;79.30;;;;;;5031037;28;20219;-83
2022/06/06 11:19:41;;;;;;;4.47;4.07;;;21.60;81.20;;;;;;5071632;28;20202;-83
2022/06/06 11:22:12;;;;;;;4.15;3.75;;;21.70;80.10;;;;;;5075544;28;20244;-81
2022/06/06 11:24:38;;;;;;;4.70;4.00;;;21.70;78.10;;;;;;5084857;28;20553;-80
2022/06/06 11:27:22;;;;;;;6.38;4.53;;;21.90;77.70;;;;;;5087891;28;20259;-82
2022/06/06 11:30:09;;;;;;;4.10;3.80;;;22.10;78.60;;;;;;5073958;28;20666;-82
2022/06/06 11:33:03;;;;;;;4.30;3.92;;;22.30;76.10;;;;;;5076399;28;20196;-80
2022/06/06 11:35:29;;;;;;;4.43;4.13;;;22.60;77.60;;;;;;5074080;28;20203;-82
2022/06/06 11:38:07;;;;;;;4.85;4.10;;;22.70;77.60;;;;;;5076490;28;20194;-81
2022/06/06 11:40:47;;;;;;;4.15;3.85;;;22.60;74.20;;;;;;5089525;28;20185;-82
2022/06/06 11:43:25;;;;;;;4.25;3.95;;;22.40;75.00;;;;;;5075659;28;20271;-82
2022/06/06 11:46:21;;;;;;;4.60;4.30;;;22.50;76.00;;;;;;5071928;28;20233;-82
2022/06/06 11:48:58;;;;;;;6.82;3.78;;;22.70;74.40;;;;;;5052658;28;20253;-82
2022/06/06 11:51:45;;;;;;;4.10;3.70;;;23.10;70.80;;;;;;5074814;28;20209;-81
2022/06/06 11:54:53;;;;;;;3.28;3.08;;;23.40;71.90;;;;;;5069680;28;20187;-82
2022/06/06 11:57:49;;;;;;;3.13;2.92;;;23.70;67.50;;;;;;5041173;28;20226;-82
2022/06/06 12:00:48;;;;;;;3.60;3.30;;;23.90;64.90;;;;;;5074432;28;20184;-82
2022/06/06 12:03:49;;;;;;;3.55;3.25;;;23.80;65.70;;;;;;5073758;28;20194;-83
2022/06/06 12:06:41;;;;;;;4.07;3.50;;;23.60;65.40;;;;;;5064381;28;20235;-82
2022/06/06 12:09:51;;;;;;;3.83;3.53;;;23.40;65.60;;;;;;5081019;28;20182;-82
2022/06/06 12:12:37;;;;;;;5.35;3.72;;;23.30;69.40;;;;;;5004459;28;20234;-82
2022/06/06 12:15:30;;;;;;;5.85;3.92;;;23.30;68.80;;;;;;5004107;28;20245;-81
2022/06/06 12:18:13;;;;;;;4.55;4.15;;;23.10;69.40;;;;;;5067504;28;20199;-81
2022/06/06 12:20:58;;;;;;;5.65;4.22;;;23.00;68.80;;;;;;5085601;28;20191;-81
2022/06/06 12:23:43;;;;;;;4.97;3.92;;;22.80;71.20;;;;;;5071378;28;20180;-83
2022/06/06 12:26:27;;;;;;;4.90;4.50;;;22.80;70.20;;;;;;5083786;28;20210;-81
2022/06/06 12:29:30;;;;;;;4.15;3.67;;;22.80;71.90;;;;;;5073144;28;20229;-81
2022/06/06 12:32:15;;;;;;;4.00;3.70;;;22.80;71.40;;;;;;5072661;28;20236;-81
2022/06/06 12:34:47;;;;;;;4.07;3.67;;;22.60;71.90;;;;;;5073403;28;20183;-81
2022/06/06 12:37:15;;;;;;;4.45;4.03;;;22.50;72.30;;;;;;5076310;28;20214;-81
2022/06/06 12:40:03;;;;;;;4.75;4.07;;;22.50;73.70;;;;;;5082190;28;20190;-82
2022/06/06 12:42:50;;;;;;;3.75;3.40;;;22.50;72.40;;;;;;5092341;28;20399;-81
2022/06/06 12:45:53;;;;;;;5.68;4.00;;;22.60;72.70;;;;;;5075446;28;20203;-82
2022/06/06 12:48:59;;;;;;;4.88;4.35;;;22.70;72.70;;;;;;5076951;28;20641;-82
2022/06/06 12:51:46;;;;;;;5.03;4.70;;;22.80;73.50;;;;;;5075004;28;20225;-83
2022/06/06 12:57:52;;;;;;;4.20;3.80;;;22.90;69.10;;;;;;5078822;28;20190;-83
2022/06/06 13:03:58;;;;;;;4.10;3.80;;;23.00;73.20;;;;;;5079215;28;20217;-83
2022/06/06 13:06:49;;;;;;;3.45;3.20;;;23.00;68.00;;;;;;5081169;28;20207;-83
2022/06/06 13:09:41;;;;;;;4.32;3.33;;;22.70;68.50;;;;;;5081917;28;20183;-82
2022/06/06 13:12:22;;;;;;;4.55;4.15;;;22.50;71.70;;;;;;5061921;28;20207;-83
2022/06/06 13:15:13;;;;;;;4.47;3.83;;;22.50;70.70;;;;;;5077016;28;20238;-82
2022/06/06 13:18:17;;;;;;;3.95;3.65;;;22.50;72.70;;;;;;5075722;28;20181;-82
2022/06/06 13:20:48;;;;;;;4.20;3.80;;;22.40;71.70;;;;;;4982655;28;20225;-81
2022/06/06 13:23:28;;;;;;;4.30;3.80;;;22.50;71.30;;;;;;5057417;28;20207;-81
2022/06/06 13:26:17;;;;;;;4.22;3.92;;;22.60;71.10;;;;;;5071037;28;20242;-82
2022/06/06 13:28:50;;;;;;;7.13;4.25;;;22.50;75.60;;;;;;5076800;28;20180;-81
2022/06/06 13:31:34;;;;;;;4.72;3.85;;;22.40;78.80;;;;;;5081361;28;20262;-80
2022/06/06 13:34:10;;;;;;;3.95;3.58;;;22.30;74.10;;;;;;5079154;28;20202;-82
2022/06/06 13:37:03;;;;;;;3.53;3.22;;;22.30;72.00;;;;;;5079739;28;20601;-82
2022/06/06 13:39:52;;;;;;;4.65;4.05;;;22.40;72.10;;;;;;5074784;28;20909;-82
2022/06/06 13:42:49;;;;;;;4.82;4.30;;;22.80;71.10;;;;;;5076082;28;20478;-81
2022/06/06 13:45:36;;;;;;;4.72;4.30;;;23.20;73.20;;;;;;5080947;28;20605;-80
2022/06/06 13:48:23;;;;;;;6.60;4.50;;;23.60;66.90;;;;;;5072170;28;20538;-81
2022/06/06 13:51:16;;;;;;;3.78;3.47;;;23.90;67.30;;;;;;5058222;28;20251;-81
2022/06/06 13:54:05;;;;;;;6.43;3.15;;;24.10;63.10;;;;;;5083983;28;20245;-80
2022/06/06 13:56:43;;;;;;;3.75;3.10;;;24.00;67.10;;;;;;5084250;28;20856;-82
2022/06/06 14:00:00;;;;;;;5.20;3.35;;;24.10;65.90;;;;;;5076512;28;20260;-81
2022/06/06 14:02:58;;;;;;;3.08;2.85;;;24.00;64.00;;;;;;5042433;28;20270;-80
2022/06/06 14:05:30;;;;;;;3.13;2.75;;;23.90;61.90;;;;;;5082368;28;20925;-80
2022/06/06 14:08:16;;;;;;;2.90;2.70;;;23.60;59.50;;;;;;5080334;28;20183;-80
2022/06/06 14:10:51;;;;;;;3.15;2.80;;;23.50;61.40;;;;;;5079096;28;20191;-80
2022/06/06 14:13:40;;;;;;;3.25;2.95;;;23.50;60.60;;;;;;5083014;28;20190;-81
2022/06/06 14:16:18;;;;;;;3.15;2.70;;;23.50;60.90;;;;;;5087038;28;20221;-82
2022/06/06 14:18:45;;;;;;;4.85;2.90;;;23.50;60.60;;;;;;5084842;28;20328;-79
2022/06/06 14:21:23;;;;;;;3.25;2.75;;;23.30;63.10;;;;;;5077153;28;20287;-80
2022/06/06 14:23:49;;;;;;;3.60;3.20;;;23.30;59.80;;;;;;5065686;28;20198;-81
2022/06/06 14:26:19;;;;;;;3.97;2.42;;;23.10;61.60;;;;;;5083687;28;20200;-81